createdAt,value
2018-10-16T00:01:14.142Z,10.17
2018-10-16T00:04:18.536Z,9.93
2018-10-16T00:07:22.898Z,8.87
2018-10-16T00:10:32.304Z,10.10
2018-10-16T00:13:36.306Z,10.40
2018-10-16T00:16:40.384Z,10.23
2018-10-16T00:19:44.516Z,10.53
2018-10-16T00:22:48.697Z,10.30
2018-10-16T00:25:52.810Z,10.13
2018-10-16T00:28:56.981Z,10.63
2018-10-16T00:32:01.020Z,10.83
2018-10-16T00:35:05.262Z,10.47
2018-10-16T00:38:09.328Z,10.60
2018-10-16T00:41:13.506Z,10.33
2018-10-16T00:44:17.647Z,9.83
2018-10-16T00:47:21.729Z,10.43
2018-10-16T00:50:25.796Z,9.93
2018-10-16T00:53:29.824Z,9.97
2018-10-16T00:56:33.893Z,11.00
2018-10-16T00:59:38.188Z,11.07
2018-10-16T01:02:43.215Z,11.00
2018-10-16T01:05:47.301Z,10.60
2018-10-16T01:08:51.362Z,10.73
2018-10-16T01:11:55.447Z,10.53
2018-10-16T01:14:59.535Z,10.27
2018-10-16T01:18:03.691Z,10.10
2018-10-16T01:21:08.936Z,10.63
2018-10-16T01:24:13.570Z,9.80
2018-10-16T01:27:17.642Z,9.47
2018-10-16T01:30:21.754Z,9.67
2018-10-16T01:33:25.847Z,10.50
2018-10-16T01:36:29.925Z,9.30
2018-10-16T01:39:34.242Z,9.77
2018-10-16T01:42:38.537Z,9.23
2018-10-16T01:45:42.653Z,10.40
2018-10-16T01:48:46.759Z,10.97
2018-10-16T01:51:50.983Z,10.13
2018-10-16T01:54:55.030Z,9.80
2018-10-16T01:57:59.106Z,9.40
2018-10-16T02:01:03.618Z,9.70
2018-10-16T02:04:08.232Z,9.67
2018-10-16T02:07:12.277Z,10.27
2018-10-16T02:10:16.318Z,8.70
2018-10-16T02:13:20.404Z,12.10
2018-10-16T02:16:24.551Z,8.87
2018-10-16T02:19:28.649Z,8.57
2018-10-16T02:22:32.782Z,9.53
2018-10-16T02:25:36.794Z,9.37
2018-10-16T02:28:40.891Z,9.23
2018-10-16T02:31:45.030Z,9.60
2018-10-16T02:34:49.222Z,9.10
2018-10-16T02:37:53.375Z,9.73
2018-10-16T02:40:57.425Z,9.67
2018-10-16T02:44:01.486Z,8.93
2018-10-16T02:47:05.790Z,9.53
2018-10-16T02:50:11.073Z,9.33
2018-10-16T02:53:15.157Z,8.70
2018-10-16T02:56:19.279Z,8.47
2018-10-16T02:59:23.496Z,9.17
2018-10-16T03:02:27.569Z,9.07
2018-10-16T03:05:31.650Z,10.20
2018-10-16T03:08:36.142Z,9.50
2018-10-16T03:11:40.168Z,9.70
2018-10-16T03:14:44.202Z,9.67
2018-10-16T03:17:48.272Z,9.87
2018-10-16T03:20:52.313Z,9.10
2018-10-16T03:23:56.351Z,9.13
2018-10-16T03:27:00.390Z,9.13
2018-10-16T03:30:05.571Z,9.03
2018-10-16T03:33:09.599Z,9.73
2018-10-16T03:36:13.929Z,9.53
2018-10-16T03:39:18.018Z,9.73
2018-10-16T03:42:22.115Z,9.20
2018-10-16T03:45:26.131Z,8.50
2018-10-16T03:48:30.200Z,9.93
2018-10-16T03:51:34.276Z,9.33
2018-10-16T03:54:38.390Z,9.97
2018-10-16T03:57:42.528Z,9.37
2018-10-16T04:00:46.621Z,9.03
2018-10-16T04:03:50.724Z,10.23
2018-10-16T04:06:54.781Z,10.17
2018-10-16T04:09:58.992Z,9.90
2018-10-16T04:13:03.088Z,10.67
2018-10-16T04:16:07.414Z,10.57
2018-10-16T04:19:11.551Z,9.87
2018-10-16T04:22:15.601Z,10.37
2018-10-16T04:25:19.672Z,10.37
2018-10-16T04:28:23.857Z,9.97
2018-10-16T04:31:28.015Z,10.93
2018-10-16T04:34:32.030Z,10.70
2018-10-16T04:37:36.082Z,9.87
2018-10-16T04:40:40.469Z,10.03
2018-10-16T04:43:44.573Z,9.40
2018-10-16T04:46:48.656Z,11.50
2018-10-16T04:49:52.755Z,10.30
2018-10-16T04:52:56.779Z,10.20
2018-10-16T04:56:00.805Z,9.27
2018-10-16T04:59:05.225Z,9.87
2018-10-16T05:02:09.309Z,10.10
2018-10-16T05:05:19.418Z,10.17
2018-10-16T05:08:23.543Z,10.47
2018-10-16T05:11:27.696Z,9.37
2018-10-16T05:14:31.854Z,10.47
2018-10-16T05:17:35.927Z,11.50
2018-10-16T05:20:39.972Z,11.03
2018-10-16T05:23:44.220Z,11.20
2018-10-16T05:26:48.408Z,11.00
2018-10-16T05:29:52.456Z,10.20
2018-10-16T05:32:56.528Z,10.77
2018-10-16T05:36:00.564Z,10.80
2018-10-16T05:39:06.717Z,10.80
2018-10-16T05:42:10.810Z,10.20
2018-10-16T05:45:14.948Z,9.93
2018-10-16T05:48:19.060Z,10.47
2018-10-16T05:51:23.183Z,9.80
2018-10-16T05:54:27.378Z,10.23
2018-10-16T05:57:31.966Z,10.67
2018-10-16T06:00:45.399Z,10.17
2018-10-16T06:03:49.426Z,10.80
2018-10-16T06:06:53.450Z,11.60
2018-10-16T06:09:57.507Z,10.73
2018-10-16T06:13:01.620Z,10.77
2018-10-16T06:16:06.109Z,11.33
2018-10-16T06:19:10.463Z,11.37
2018-10-16T06:22:14.515Z,11.50
2018-10-16T06:25:18.605Z,10.43
2018-10-16T06:28:24.157Z,11.63
2018-10-16T06:31:28.253Z,10.83
2018-10-16T06:34:32.318Z,11.13
2018-10-16T06:37:36.491Z,11.23
2018-10-16T06:40:40.657Z,10.50
2018-10-16T06:43:44.707Z,11.17
2018-10-16T06:46:48.746Z,11.17
2018-10-16T06:49:52.797Z,10.33
2018-10-16T06:52:57.189Z,11.73
2018-10-16T06:56:01.203Z,11.90
2018-10-16T06:59:05.459Z,11.53
2018-10-16T07:02:09.598Z,10.70
2018-10-16T07:05:13.681Z,11.40
2018-10-16T07:08:17.751Z,11.27
2018-10-16T07:11:21.851Z,10.33
2018-10-16T07:14:25.938Z,10.57
2018-10-16T07:17:30.004Z,11.00
2018-10-16T07:20:34.054Z,10.37
2018-10-16T07:23:38.243Z,10.93
2018-10-16T07:26:42.182Z,11.03
2018-10-16T07:29:46.420Z,11.33
2018-10-16T07:32:50.661Z,10.33
2018-10-16T07:35:54.977Z,12.67
2018-10-16T07:38:59.089Z,11.20
2018-10-16T07:42:03.167Z,11.47
2018-10-16T07:45:07.955Z,11.33
2018-10-16T07:48:12.040Z,11.47
2018-10-16T07:51:16.133Z,10.90
2018-10-16T07:54:20.184Z,11.17
2018-10-16T07:57:24.415Z,11.17
2018-10-16T08:00:28.464Z,11.70
2018-10-16T08:03:32.465Z,11.13
2018-10-16T08:06:36.775Z,10.93
2018-10-16T08:09:41.025Z,11.67
2018-10-16T08:12:45.241Z,11.47
2018-10-16T08:15:49.322Z,11.07
2018-10-16T08:18:53.357Z,12.00
2018-10-16T08:21:57.405Z,11.57
2018-10-16T08:25:01.591Z,11.10
2018-10-16T08:28:05.824Z,11.37
2018-10-16T08:31:09.883Z,11.87
2018-10-16T08:34:13.994Z,10.33
2018-10-16T08:37:40.961Z,11.20
2018-10-16T08:40:45.002Z,10.47
2018-10-16T08:44:00.265Z,10.50
2018-10-16T08:47:15.741Z,10.83
2018-10-16T08:50:32.104Z,9.97
2018-10-16T08:53:36.137Z,10.13
2018-10-16T08:56:40.553Z,10.37
2018-10-16T08:59:44.568Z,11.03
2018-10-16T09:02:48.645Z,9.43
2018-10-16T09:05:52.805Z,11.17
2018-10-16T09:08:56.874Z,10.87
2018-10-16T09:12:01.044Z,10.57
2018-10-16T09:15:06.582Z,10.93
2018-10-16T09:18:10.790Z,9.37
2018-10-16T09:21:14.834Z,11.17
2018-10-16T09:24:18.889Z,10.17
2018-10-16T09:27:23.365Z,10.33
2018-10-16T09:30:27.433Z,9.60
2018-10-16T09:33:31.661Z,8.63
2018-10-16T09:36:35.735Z,10.33
2018-10-16T09:39:40.059Z,9.57
2018-10-16T09:42:44.275Z,9.37
2018-10-16T09:45:48.390Z,8.97
2018-10-16T09:48:52.448Z,9.47
2018-10-16T09:51:56.529Z,9.30
2018-10-16T09:55:00.579Z,8.70
2018-10-16T09:58:04.683Z,8.33
2018-10-16T10:01:14.271Z,8.87
2018-10-16T10:04:18.423Z,8.83
2018-10-16T10:07:22.490Z,8.43
2018-10-16T10:10:26.656Z,8.77
2018-10-16T10:13:30.720Z,9.07
2018-10-16T10:16:34.767Z,8.40
2018-10-16T10:19:38.804Z,8.77
2018-10-16T10:22:43.013Z,8.97
2018-10-16T10:25:47.109Z,8.50
2018-10-16T10:28:51.842Z,7.93
2018-10-16T10:31:55.840Z,8.63
2018-10-16T10:35:00.312Z,8.67
2018-10-16T10:38:04.604Z,8.60
2018-10-16T10:41:08.714Z,7.97
2018-10-16T10:44:12.813Z,9.23
2018-10-16T10:47:16.955Z,8.07
2018-10-16T10:50:21.301Z,8.90
2018-10-16T10:53:25.411Z,9.00
2018-10-16T10:56:29.620Z,8.60
2018-10-16T10:59:33.840Z,8.07
2018-10-16T11:02:41.528Z,8.33
2018-10-16T11:05:45.707Z,8.80
2018-10-16T11:08:49.797Z,8.33
2018-10-16T11:11:55.404Z,8.50
2018-10-16T11:14:59.586Z,7.57
2018-10-16T11:18:03.607Z,9.23
2018-10-16T11:21:07.702Z,8.47
2018-10-16T11:24:11.772Z,7.77
2018-10-16T11:27:15.901Z,8.60
2018-10-16T11:30:20.395Z,8.43
2018-10-16T11:33:24.437Z,8.60
2018-10-16T11:36:28.491Z,8.93
2018-10-16T11:39:32.542Z,8.93
2018-10-16T11:42:36.592Z,8.27
2018-10-16T11:45:40.698Z,9.17
2018-10-16T11:48:45.286Z,8.30
2018-10-16T11:51:49.446Z,8.90
2018-10-16T11:54:53.632Z,9.37
2018-10-16T11:57:57.644Z,8.50
2018-10-16T12:01:01.758Z,8.80
2018-10-16T12:04:05.983Z,9.07
2018-10-16T12:07:10.091Z,8.83
2018-10-16T12:10:14.123Z,8.63
2018-10-16T12:13:18.227Z,9.50
2018-10-16T12:16:25.900Z,8.03
2018-10-16T12:19:39.410Z,8.20
2018-10-16T12:22:43.720Z,8.77
2018-10-16T12:25:47.840Z,8.77
2018-10-16T12:28:51.951Z,7.70
2018-10-16T12:31:56.084Z,7.80
2018-10-16T12:35:00.151Z,8.57
2018-10-16T12:38:04.231Z,8.17
2018-10-16T12:41:08.404Z,8.57
2018-10-16T12:44:12.507Z,8.37
2018-10-16T12:47:16.725Z,8.13
2018-10-16T12:50:20.869Z,8.33
2018-10-16T12:53:25.604Z,9.07
2018-10-16T12:56:29.665Z,8.03
2018-10-16T12:59:33.843Z,8.00
2018-10-16T13:02:38.200Z,8.27
2018-10-16T13:05:42.283Z,8.53
2018-10-16T13:08:46.457Z,7.73
2018-10-16T13:11:50.552Z,8.63
2018-10-16T13:14:54.698Z,8.10
2018-10-16T13:17:58.782Z,8.23
2018-10-16T13:21:02.857Z,8.03
2018-10-16T13:24:07.043Z,8.37
2018-10-16T13:27:11.049Z,8.27
2018-10-16T13:30:17.319Z,6.73
2018-10-16T13:33:21.470Z,7.37
2018-10-16T13:36:25.815Z,9.50
2018-10-16T13:39:29.878Z,8.20
2018-10-16T13:42:34.160Z,7.90
2018-10-16T13:45:38.116Z,7.63
2018-10-16T13:48:42.207Z,8.40
2018-10-16T13:51:46.243Z,8.13
2018-10-16T13:54:51.329Z,8.30
2018-10-16T13:57:55.488Z,8.23
2018-10-16T14:00:59.440Z,8.27
2018-10-16T14:04:03.580Z,7.93
2018-10-16T14:07:07.783Z,7.57
2018-10-16T14:10:13.230Z,8.53
2018-10-16T14:13:18.331Z,10.23
2018-10-16T14:16:22.490Z,7.93
2018-10-16T14:19:26.675Z,8.00
2018-10-16T14:22:31.035Z,8.13
2018-10-16T14:25:35.207Z,7.30
2018-10-16T14:28:39.362Z,8.57
2018-10-16T14:31:43.497Z,7.27
2018-10-16T14:34:47.711Z,7.73
2018-10-16T14:37:51.868Z,8.40
2018-10-16T14:40:55.896Z,7.63
2018-10-16T14:44:00.097Z,8.10
2018-10-16T14:47:04.406Z,7.70
2018-10-16T14:50:09.697Z,7.97
2018-10-16T14:53:14.075Z,7.73
2018-10-16T14:56:18.292Z,9.20
2018-10-16T14:59:22.388Z,7.77
2018-10-16T15:02:26.470Z,8.30
2018-10-16T15:05:30.551Z,7.70
2018-10-16T15:08:34.661Z,8.50
2018-10-16T15:11:39.190Z,7.23
2018-10-16T15:14:43.655Z,8.23
2018-10-16T15:17:47.855Z,9.00
2018-10-16T15:20:51.937Z,9.47
2018-10-16T15:23:56.068Z,10.10
2018-10-16T15:27:00.149Z,8.57
2018-10-16T15:30:05.627Z,8.50
2018-10-16T15:33:09.875Z,9.27
2018-10-16T15:36:13.959Z,8.97
2018-10-16T15:39:18.061Z,7.73
2018-10-16T15:42:22.416Z,7.53
2018-10-16T15:45:26.746Z,8.87
2018-10-16T15:48:30.770Z,10.13
2018-10-16T15:51:34.833Z,9.67
2018-10-16T15:54:39.069Z,9.27
2018-10-16T15:57:43.224Z,8.93
2018-10-16T16:00:47.367Z,9.00
2018-10-16T16:03:51.476Z,9.57
2018-10-16T16:06:55.640Z,9.50
2018-10-16T16:09:59.763Z,9.53
2018-10-16T16:13:08.888Z,9.27
2018-10-16T16:16:13.120Z,10.83
2018-10-16T16:19:17.410Z,9.90
2018-10-16T16:22:21.478Z,10.40
2018-10-16T16:25:25.748Z,9.83
2018-10-16T16:28:29.890Z,10.13
2018-10-16T16:31:34.103Z,12.17
2018-10-16T16:34:38.152Z,10.30
2018-10-16T16:37:43.781Z,10.90
2018-10-16T16:40:47.999Z,10.60
2018-10-16T16:43:52.295Z,9.23
2018-10-16T16:46:56.210Z,9.87
2018-10-16T16:50:00.375Z,10.40
2018-10-16T16:53:04.468Z,10.13
2018-10-16T16:56:08.739Z,12.40
2018-10-16T16:59:12.801Z,11.87
2018-10-16T17:02:17.259Z,11.03
2018-10-16T17:05:21.384Z,10.70
2018-10-16T17:08:25.765Z,11.07
2018-10-16T17:11:29.879Z,11.17
2018-10-16T17:14:34.129Z,10.77
2018-10-16T17:17:38.355Z,12.00
2018-10-16T17:20:42.517Z,11.53
2018-10-16T17:23:46.876Z,11.63
2018-10-16T17:26:51.068Z,12.60
2018-10-16T17:29:55.107Z,10.70
2018-10-16T17:32:59.246Z,11.63
2018-10-16T17:36:07.512Z,14.70
2018-10-16T17:39:11.931Z,13.63
2018-10-16T17:42:15.842Z,11.73
2018-10-16T17:45:20.049Z,12.73
2018-10-16T17:48:24.215Z,11.20
2018-10-16T17:51:28.363Z,12.43
2018-10-16T17:54:32.401Z,12.33
2018-10-16T17:57:36.955Z,10.77
2018-10-16T18:00:41.012Z,10.40
2018-10-16T18:03:45.209Z,11.73
2018-10-16T18:06:49.491Z,11.47
2018-10-16T18:09:53.655Z,12.63
2018-10-16T18:12:57.753Z,31.53
2018-10-16T18:16:02.341Z,16.73
2018-10-16T18:19:07.113Z,13.60
2018-10-16T18:22:11.136Z,14.50
2018-10-16T18:25:15.561Z,13.30
2018-10-16T18:28:19.676Z,13.23
2018-10-16T18:31:24.465Z,13.57
2018-10-16T18:34:28.627Z,13.50
2018-10-16T18:37:32.856Z,12.53
2018-10-16T18:40:37.121Z,15.63
2018-10-16T18:43:41.245Z,15.07
2018-10-16T18:46:45.436Z,13.53
2018-10-16T18:49:49.650Z,12.23
2018-10-16T18:52:53.765Z,12.20
2018-10-16T18:55:58.203Z,11.90
2018-10-16T18:59:02.466Z,10.97
2018-10-16T19:02:06.646Z,13.60
2018-10-16T19:05:11.800Z,12.87
2018-10-16T19:08:15.913Z,13.00
2018-10-16T19:11:20.013Z,12.60
2018-10-16T19:14:24.246Z,13.23
2018-10-16T19:17:28.307Z,13.53
2018-10-16T19:20:32.360Z,14.23
2018-10-16T19:23:36.434Z,14.17
2018-10-16T19:26:40.642Z,13.27
2018-10-16T19:29:45.045Z,13.23
2018-10-16T19:32:49.307Z,12.43
2018-10-16T19:35:53.338Z,13.33
2018-10-16T19:38:57.517Z,13.73
2018-10-16T19:42:01.576Z,14.30
2018-10-16T19:45:06.455Z,13.23
2018-10-16T19:48:10.538Z,14.03
2018-10-16T19:51:14.720Z,12.80
2018-10-16T19:54:19.032Z,13.63
2018-10-16T19:57:23.168Z,14.40
2018-10-16T20:00:27.343Z,13.70
2018-10-16T20:03:31.484Z,13.73
2018-10-16T20:06:35.603Z,13.43
2018-10-16T20:09:39.695Z,13.37
2018-10-16T20:12:43.807Z,13.53
2018-10-16T20:15:47.906Z,14.90
2018-10-16T20:18:52.064Z,13.23
2018-10-16T20:21:56.274Z,12.67
2018-10-16T20:25:00.410Z,14.03
2018-10-16T20:28:05.123Z,15.87
2018-10-16T20:31:09.310Z,16.53
2018-10-16T20:34:13.585Z,15.10
2018-10-16T20:37:17.677Z,15.07
2018-10-16T20:40:22.413Z,15.43
2018-10-16T20:43:26.572Z,15.47
2018-10-16T20:46:30.742Z,16.47
2018-10-16T20:49:34.867Z,17.80
2018-10-16T20:52:39.503Z,16.73
2018-10-16T20:55:43.649Z,17.80
2018-10-16T20:58:47.710Z,19.13
2018-10-16T21:01:52.077Z,19.23
2018-10-16T21:04:56.414Z,18.20
2018-10-16T21:08:00.371Z,19.77
2018-10-16T21:11:04.815Z,18.17
2018-10-16T21:14:08.870Z,17.60
2018-10-16T21:17:12.945Z,15.83
2018-10-16T21:20:16.975Z,16.53
2018-10-16T21:23:21.065Z,18.67
2018-10-16T21:26:25.260Z,17.47
2018-10-16T21:29:29.290Z,17.53
2018-10-16T21:32:33.436Z,18.80
2018-10-16T21:35:37.499Z,17.33
2018-10-16T21:38:42.014Z,16.63
2018-10-16T21:41:46.154Z,17.50
2018-10-16T21:44:50.873Z,15.10
2018-10-16T21:47:54.997Z,16.80
2018-10-16T21:50:59.049Z,17.43
2018-10-16T21:54:03.113Z,16.40
2018-10-16T21:57:07.141Z,16.63
2018-10-16T22:00:15.916Z,16.03
2018-10-16T22:03:19.991Z,15.23
2018-10-16T22:06:24.078Z,14.93
2018-10-16T22:09:28.171Z,16.63
2018-10-16T22:12:32.242Z,15.50
2018-10-16T22:15:36.309Z,15.13
2018-10-16T22:18:40.694Z,15.93
2018-10-16T22:21:44.741Z,15.57
2018-10-16T22:24:48.773Z,15.83
2018-10-16T22:27:52.901Z,12.23
2018-10-16T22:30:56.963Z,13.00
2018-10-16T22:34:01.067Z,13.17
2018-10-16T22:37:05.197Z,13.53
2018-10-16T22:40:10.019Z,13.27
2018-10-16T22:43:14.134Z,14.57
2018-10-16T22:46:18.095Z,13.93
2018-10-16T22:49:22.178Z,14.63
2018-10-16T22:52:26.556Z,15.53
2018-10-16T22:55:30.639Z,15.93
2018-10-16T22:58:34.676Z,15.30
2018-10-16T23:01:38.703Z,16.00
2018-10-16T23:04:43.339Z,14.90
2018-10-16T23:07:47.735Z,14.63
2018-10-16T23:10:51.875Z,14.67
2018-10-16T23:13:55.929Z,16.03
2018-10-16T23:17:00.260Z,15.23
2018-10-16T23:20:04.348Z,14.50
2018-10-16T23:23:08.450Z,14.93
2018-10-16T23:26:12.542Z,14.57
2018-10-16T23:29:16.695Z,13.90
2018-10-16T23:32:20.819Z,14.10
2018-10-16T23:35:24.969Z,15.07
2018-10-16T23:38:35.473Z,13.80
2018-10-16T23:41:40.539Z,14.17
2018-10-16T23:44:44.566Z,13.63
2018-10-16T23:47:48.611Z,13.70
2018-10-16T23:50:52.786Z,13.27
2018-10-16T23:53:56.798Z,13.60
2018-10-16T23:57:00.822Z,14.63
